sensor_id;sensor_type;location;lat;lon;timestamp;P1;durP1;ratioP1;P2;durP2;ratioP2
12703;SDS011;6416;52.182;7.650;2022-12-07T00:01:36;4.13;;;3.77;;
12703;SDS011;6416;52.182;7.650;2022-12-07T00:04:03;4.00;;;3.60;;
12703;SDS011;6416;52.182;7.650;2022-12-07T00:06:29;4.57;;;4.17;;
12703;SDS011;6416;52.182;7.650;2022-12-07T00:08:56;4.17;;;3.77;;
12703;SDS011;6416;52.182;7.650;2022-12-07T00:11:24;3.87;;;3.47;;
12703;SDS011;6416;52.182;7.650;2022-12-07T00:13:51;3.93;;;3.63;;
12703;SDS011;6416;52.182;7.650;2022-12-07T00:16:18;4.23;;;3.93;;
12703;SDS011;6416;52.182;7.650;2022-12-07T00:18:45;3.80;;;3.50;;
12703;SDS011;6416;52.182;7.650;2022-12-07T00:21:12;3.80;;;3.50;;
12703;SDS011;6416;52.182;7.650;2022-12-07T00:23:45;3.80;;;3.30;;
12703;SDS011;6416;52.182;7.650;2022-12-07T00:26:16;3.20;;;3.00;;
12703;SDS011;6416;52.182;7.650;2022-12-07T00:28:47;3.67;;;3.37;;
12703;SDS011;6416;52.182;7.650;2022-12-07T00:31:13;3.37;;;3.17;;
12703;SDS011;6416;52.182;7.650;2022-12-07T00:33:40;3.50;;;3.20;;
12703;SDS011;6416;52.182;7.650;2022-12-07T00:36:07;3.57;;;3.30;;
12703;SDS011;6416;52.182;7.650;2022-12-07T00:38:35;3.37;;;3.13;;
12703;SDS011;6416;52.182;7.650;2022-12-07T00:41:02;3.60;;;3.40;;
12703;SDS011;6416;52.182;7.650;2022-12-07T00:43:30;3.40;;;3.13;;
12703;SDS011;6416;52.182;7.650;2022-12-07T00:45:55;3.27;;;2.97;;
12703;SDS011;6416;52.182;7.650;2022-12-07T00:48:21;3.93;;;3.20;;
12703;SDS011;6416;52.182;7.650;2022-12-07T00:50:48;3.07;;;2.87;;
12703;SDS011;6416;52.182;7.650;2022-12-07T00:53:14;3.13;;;2.93;;
12703;SDS011;6416;52.182;7.650;2022-12-07T00:55:40;3.27;;;3.03;;
12703;SDS011;6416;52.182;7.650;2022-12-07T00:58:06;3.13;;;2.83;;
12703;SDS011;6416;52.182;7.650;2022-12-07T01:00:31;3.13;;;2.83;;
12703;SDS011;6416;52.182;7.650;2022-12-07T01:02:57;3.67;;;3.30;;
12703;SDS011;6416;52.182;7.650;2022-12-07T01:05:22;3.67;;;3.20;;
12703;SDS011;6416;52.182;7.650;2022-12-07T01:07:48;5.00;;;3.27;;
12703;SDS011;6416;52.182;7.650;2022-12-07T01:10:13;3.50;;;3.20;;
12703;SDS011;6416;52.182;7.650;2022-12-07T01:12:39;3.70;;;3.40;;
12703;SDS011;6416;52.182;7.650;2022-12-07T01:15:05;2.83;;;2.63;;
12703;SDS011;6416;52.182;7.650;2022-12-07T01:17:32;3.30;;;3.00;;
12703;SDS011;6416;52.182;7.650;2022-12-07T01:19:57;4.13;;;3.10;;
12703;SDS011;6416;52.182;7.650;2022-12-07T01:22:23;4.10;;;2.93;;
12703;SDS011;6416;52.182;7.650;2022-12-07T01:24:48;2.63;;;2.43;;
12703;SDS011;6416;52.182;7.650;2022-12-07T01:27:13;2.87;;;2.67;;
12703;SDS011;6416;52.182;7.650;2022-12-07T01:29:39;3.20;;;2.90;;
12703;SDS011;6416;52.182;7.650;2022-12-07T01:32:05;2.90;;;2.53;;
12703;SDS011;6416;52.182;7.650;2022-12-07T01:34:30;3.60;;;2.70;;
12703;SDS011;6416;52.182;7.650;2022-12-07T01:36:56;3.20;;;2.90;;
12703;SDS011;6416;52.182;7.650;2022-12-07T01:39:22;2.97;;;2.73;;
12703;SDS011;6416;52.182;7.650;2022-12-07T01:41:47;3.10;;;2.77;;
12703;SDS011;6416;52.182;7.650;2022-12-07T01:44:14;3.50;;;2.13;;
12703;SDS011;6416;52.182;7.650;2022-12-07T01:46:41;3.00;;;2.30;;
12703;SDS011;6416;52.182;7.650;2022-12-07T01:49:09;2.57;;;2.37;;
12703;SDS011;6416;52.182;7.650;2022-12-07T01:51:39;3.37;;;2.47;;
12703;SDS011;6416;52.182;7.650;2022-12-07T01:54:07;3.90;;;2.50;;
12703;SDS011;6416;52.182;7.650;2022-12-07T01:56:35;2.43;;;2.23;;
12703;SDS011;6416;52.182;7.650;2022-12-07T01:59:03;2.67;;;2.47;;
12703;SDS011;6416;52.182;7.650;2022-12-07T02:01:29;4.03;;;2.20;;
12703;SDS011;6416;52.182;7.650;2022-12-07T02:03:54;2.43;;;2.23;;
12703;SDS011;6416;52.182;7.650;2022-12-07T02:06:22;2.50;;;2.30;;
12703;SDS011;6416;52.182;7.650;2022-12-07T02:08:49;2.20;;;2.00;;
12703;SDS011;6416;52.182;7.650;2022-12-07T02:11:15;2.23;;;2.03;;
12703;SDS011;6416;52.182;7.650;2022-12-07T02:13:42;2.63;;;2.43;;
12703;SDS011;6416;52.182;7.650;2022-12-07T02:18:59;2.63;;;2.27;;
12703;SDS011;6416;52.182;7.650;2022-12-07T02:21:32;2.43;;;2.07;;
12703;SDS011;6416;52.182;7.650;2022-12-07T02:30:05;2.67;;;1.90;;
12703;SDS011;6416;52.182;7.650;2022-12-07T02:35:19;3.20;;;1.80;;
12703;SDS011;6416;52.182;7.650;2022-12-07T02:40:33;2.70;;;1.90;;
12703;SDS011;6416;52.182;7.650;2022-12-07T02:43:21;4.17;;;1.77;;
12703;SDS011;6416;52.182;7.650;2022-12-07T02:45:54;2.60;;;2.10;;
12703;SDS011;6416;52.182;7.650;2022-12-07T02:48:24;1.83;;;1.73;;
12703;SDS011;6416;52.182;7.650;2022-12-07T02:50:52;2.97;;;2.03;;
12703;SDS011;6416;52.182;7.650;2022-12-07T02:53:32;2.07;;;1.97;;
12703;SDS011;6416;52.182;7.650;2022-12-07T02:56:01;1.77;;;1.60;;
12703;SDS011;6416;52.182;7.650;2022-12-07T03:04:07;1.60;;;1.50;;
12703;SDS011;6416;52.182;7.650;2022-12-07T03:06:48;1.70;;;1.60;;
12703;SDS011;6416;52.182;7.650;2022-12-07T03:09:32;2.60;;;1.93;;
12703;SDS011;6416;52.182;7.650;2022-12-07T03:12:52;2.43;;;1.80;;
12703;SDS011;6416;52.182;7.650;2022-12-07T03:15:01;3.50;;;1.77;;
12703;SDS011;6416;52.182;7.650;2022-12-07T03:17:35;2.20;;;1.80;;
12703;SDS011;6416;52.182;7.650;2022-12-07T03:20:05;1.93;;;1.57;;
12703;SDS011;6416;52.182;7.650;2022-12-07T03:22:34;1.50;;;1.40;;
12703;SDS011;6416;52.182;7.650;2022-12-07T03:25:04;2.97;;;1.40;;
12703;SDS011;6416;52.182;7.650;2022-12-07T03:27:53;2.83;;;1.70;;
12703;SDS011;6416;52.182;7.650;2022-12-07T03:30:42;2.57;;;1.47;;
12703;SDS011;6416;52.182;7.650;2022-12-07T03:33:20;3.57;;;1.53;;
12703;SDS011;6416;52.182;7.650;2022-12-07T03:36:05;1.97;;;1.70;;
12703;SDS011;6416;52.182;7.650;2022-12-07T03:41:46;1.90;;;1.50;;
12703;SDS011;6416;52.182;7.650;2022-12-07T03:44:12;2.33;;;1.27;;
12703;SDS011;6416;52.182;7.650;2022-12-07T03:46:44;2.27;;;1.50;;
12703;SDS011;6416;52.182;7.650;2022-12-07T03:52:03;1.53;;;1.43;;
12703;SDS011;6416;52.182;7.650;2022-12-07T03:54:47;1.60;;;1.50;;
12703;SDS011;6416;52.182;7.650;2022-12-07T03:57:24;2.37;;;1.53;;
12703;SDS011;6416;52.182;7.650;2022-12-07T03:59:51;1.50;;;1.40;;
12703;SDS011;6416;52.182;7.650;2022-12-07T04:02:19;2.70;;;1.57;;
12703;SDS011;6416;52.182;7.650;2022-12-07T04:04:46;1.90;;;1.30;;
12703;SDS011;6416;52.182;7.650;2022-12-07T04:07:12;1.67;;;1.43;;
12703;SDS011;6416;52.182;7.650;2022-12-07T04:09:37;1.70;;;1.30;;
12703;SDS011;6416;52.182;7.650;2022-12-07T04:12:03;3.27;;;1.53;;
12703;SDS011;6416;52.182;7.650;2022-12-07T04:14:28;1.43;;;1.20;;
12703;SDS011;6416;52.182;7.650;2022-12-07T04:16:55;2.97;;;1.33;;
12703;SDS011;6416;52.182;7.650;2022-12-07T04:19:23;1.53;;;1.30;;
12703;SDS011;6416;52.182;7.650;2022-12-07T04:21:50;2.20;;;1.33;;
12703;SDS011;6416;52.182;7.650;2022-12-07T04:24:16;1.93;;;1.23;;
12703;SDS011;6416;52.182;7.650;2022-12-07T04:26:42;1.97;;;1.40;;
12703;SDS011;6416;52.182;7.650;2022-12-07T04:29:08;1.60;;;1.20;;
12703;SDS011;6416;52.182;7.650;2022-12-07T04:31:35;2.00;;;1.30;;
12703;SDS011;6416;52.182;7.650;2022-12-07T04:34:01;1.83;;;1.40;;
12703;SDS011;6416;52.182;7.650;2022-12-07T04:36:27;3.00;;;1.20;;
12703;SDS011;6416;52.182;7.650;2022-12-07T04:38:53;1.20;;;1.10;;
12703;SDS011;6416;52.182;7.650;2022-12-07T04:41:19;2.83;;;1.23;;
12703;SDS011;6416;52.182;7.650;2022-12-07T04:43:45;1.27;;;1.10;;
12703;SDS011;6416;52.182;7.650;2022-12-07T04:46:13;1.60;;;1.40;;
12703;SDS011;6416;52.182;7.650;2022-12-07T04:48:38;4.93;;;1.40;;
12703;SDS011;6416;52.182;7.650;2022-12-07T04:51:04;1.83;;;1.20;;
12703;SDS011;6416;52.182;7.650;2022-12-07T04:53:30;2.10;;;1.20;;
12703;SDS011;6416;52.182;7.650;2022-12-07T04:55:55;1.70;;;1.30;;
12703;SDS011;6416;52.182;7.650;2022-12-07T04:58:21;1.97;;;1.30;;
12703;SDS011;6416;52.182;7.650;2022-12-07T05:00:46;2.20;;;1.30;;
12703;SDS011;6416;52.182;7.650;2022-12-07T05:03:11;1.63;;;1.20;;
12703;SDS011;6416;52.182;7.650;2022-12-07T05:05:39;1.77;;;1.33;;
12703;SDS011;6416;52.182;7.650;2022-12-07T05:08:05;1.50;;;1.13;;
12703;SDS011;6416;52.182;7.650;2022-12-07T05:10:31;2.90;;;1.27;;
12703;SDS011;6416;52.182;7.650;2022-12-07T05:12:56;1.77;;;1.30;;
12703;SDS011;6416;52.182;7.650;2022-12-07T05:15:22;3.20;;;1.30;;
12703;SDS011;6416;52.182;7.650;2022-12-07T05:17:47;2.30;;;1.40;;
12703;SDS011;6416;52.182;7.650;2022-12-07T05:20:13;2.70;;;1.13;;
12703;SDS011;6416;52.182;7.650;2022-12-07T05:22:38;2.17;;;1.10;;
12703;SDS011;6416;52.182;7.650;2022-12-07T05:25:04;1.00;;;0.90;;
12703;SDS011;6416;52.182;7.650;2022-12-07T05:27:29;2.83;;;1.27;;
12703;SDS011;6416;52.182;7.650;2022-12-07T05:29:55;3.30;;;1.07;;
12703;SDS011;6416;52.182;7.650;2022-12-07T05:32:20;1.77;;;1.00;;
12703;SDS011;6416;52.182;7.650;2022-12-07T05:34:45;2.23;;;1.40;;
12703;SDS011;6416;52.182;7.650;2022-12-07T05:37:11;2.20;;;1.10;;
12703;SDS011;6416;52.182;7.650;2022-12-07T05:39:36;2.83;;;1.13;;
12703;SDS011;6416;52.182;7.650;2022-12-07T05:42:02;2.10;;;1.00;;
12703;SDS011;6416;52.182;7.650;2022-12-07T05:44:28;2.50;;;1.30;;
12703;SDS011;6416;52.182;7.650;2022-12-07T05:46:54;2.03;;;1.07;;
12703;SDS011;6416;52.182;7.650;2022-12-07T05:49:19;2.03;;;1.03;;
12703;SDS011;6416;52.182;7.650;2022-12-07T05:51:45;1.10;;;0.90;;
12703;SDS011;6416;52.182;7.650;2022-12-07T05:54:10;2.33;;;1.10;;
12703;SDS011;6416;52.182;7.650;2022-12-07T05:56:36;1.57;;;0.97;;
12703;SDS011;6416;52.182;7.650;2022-12-07T05:59:01;1.40;;;1.27;;
12703;SDS011;6416;52.182;7.650;2022-12-07T06:01:27;2.10;;;1.20;;
12703;SDS011;6416;52.182;7.650;2022-12-07T06:03:53;3.67;;;1.40;;
12703;SDS011;6416;52.182;7.650;2022-12-07T06:06:18;3.27;;;1.30;;
12703;SDS011;6416;52.182;7.650;2022-12-07T06:08:44;1.77;;;1.37;;
12703;SDS011;6416;52.182;7.650;2022-12-07T06:11:09;2.40;;;1.50;;
12703;SDS011;6416;52.182;7.650;2022-12-07T06:13:34;2.17;;;1.77;;
12703;SDS011;6416;52.182;7.650;2022-12-07T06:16:00;1.03;;;0.93;;
12703;SDS011;6416;52.182;7.650;2022-12-07T06:18:25;2.00;;;1.40;;
12703;SDS011;6416;52.182;7.650;2022-12-07T06:20:51;2.73;;;1.70;;
12703;SDS011;6416;52.182;7.650;2022-12-07T06:23:16;3.80;;;1.50;;
12703;SDS011;6416;52.182;7.650;2022-12-07T06:25:44;2.13;;;1.30;;
12703;SDS011;6416;52.182;7.650;2022-12-07T06:28:10;2.00;;;1.17;;
12703;SDS011;6416;52.182;7.650;2022-12-07T06:30:36;4.10;;;1.30;;
12703;SDS011;6416;52.182;7.650;2022-12-07T06:33:01;2.50;;;1.50;;
12703;SDS011;6416;52.182;7.650;2022-12-07T06:35:27;2.53;;;1.33;;
12703;SDS011;6416;52.182;7.650;2022-12-07T06:37:52;2.97;;;1.60;;
12703;SDS011;6416;52.182;7.650;2022-12-07T06:40:18;3.27;;;1.70;;
12703;SDS011;6416;52.182;7.650;2022-12-07T06:42:43;2.43;;;1.80;;
12703;SDS011;6416;52.182;7.650;2022-12-07T06:45:09;2.87;;;1.90;;
12703;SDS011;6416;52.182;7.650;2022-12-07T06:47:34;3.47;;;2.00;;
12703;SDS011;6416;52.182;7.650;2022-12-07T06:50:00;2.10;;;1.90;;
12703;SDS011;6416;52.182;7.650;2022-12-07T06:52:25;4.40;;;1.50;;
12703;SDS011;6416;52.182;7.650;2022-12-07T06:54:51;3.40;;;1.90;;
12703;SDS011;6416;52.182;7.650;2022-12-07T06:57:16;2.13;;;1.77;;
12703;SDS011;6416;52.182;7.650;2022-12-07T06:59:42;6.03;;;2.10;;
12703;SDS011;6416;52.182;7.650;2022-12-07T07:02:08;1.87;;;1.60;;
12703;SDS011;6416;52.182;7.650;2022-12-07T07:04:34;2.20;;;1.60;;
12703;SDS011;6416;52.182;7.650;2022-12-07T07:07:00;1.50;;;1.37;;
12703;SDS011;6416;52.182;7.650;2022-12-07T07:09:25;2.97;;;1.23;;
12703;SDS011;6416;52.182;7.650;2022-12-07T07:11:51;2.33;;;1.50;;
12703;SDS011;6416;52.182;7.650;2022-12-07T07:14:16;3.10;;;1.33;;
12703;SDS011;6416;52.182;7.650;2022-12-07T07:16:41;1.80;;;1.40;;
12703;SDS011;6416;52.182;7.650;2022-12-07T07:19:07;3.17;;;1.33;;
12703;SDS011;6416;52.182;7.650;2022-12-07T07:21:32;2.63;;;1.53;;
12703;SDS011;6416;52.182;7.650;2022-12-07T07:23:58;3.77;;;1.30;;
12703;SDS011;6416;52.182;7.650;2022-12-07T07:26:23;2.57;;;1.17;;
12703;SDS011;6416;52.182;7.650;2022-12-07T07:28:49;4.03;;;1.20;;
12703;SDS011;6416;52.182;7.650;2022-12-07T07:31:14;2.10;;;1.30;;
12703;SDS011;6416;52.182;7.650;2022-12-07T07:33:40;1.20;;;1.07;;
12703;SDS011;6416;52.182;7.650;2022-12-07T07:36:05;2.43;;;1.50;;
12703;SDS011;6416;52.182;7.650;2022-12-07T07:38:31;2.10;;;1.33;;
12703;SDS011;6416;52.182;7.650;2022-12-07T07:40:56;1.50;;;1.00;;
12703;SDS011;6416;52.182;7.650;2022-12-07T07:43:22;1.30;;;1.10;;
12703;SDS011;6416;52.182;7.650;2022-12-07T07:45:47;3.20;;;1.20;;
12703;SDS011;6416;52.182;7.650;2022-12-07T07:48:13;1.80;;;1.20;;
12703;SDS011;6416;52.182;7.650;2022-12-07T07:50:38;2.17;;;1.10;;
12703;SDS011;6416;52.182;7.650;2022-12-07T07:53:03;3.33;;;1.27;;
12703;SDS011;6416;52.182;7.650;2022-12-07T07:55:29;1.43;;;1.03;;
12703;SDS011;6416;52.182;7.650;2022-12-07T07:57:54;2.13;;;0.90;;
12703;SDS011;6416;52.182;7.650;2022-12-07T08:00:20;2.60;;;1.30;;
12703;SDS011;6416;52.182;7.650;2022-12-07T08:02:46;2.63;;;1.40;;
12703;SDS011;6416;52.182;7.650;2022-12-07T08:05:12;2.07;;;1.10;;
12703;SDS011;6416;52.182;7.650;2022-12-07T08:07:38;1.67;;;1.20;;
12703;SDS011;6416;52.182;7.650;2022-12-07T08:10:03;2.17;;;1.27;;
12703;SDS011;6416;52.182;7.650;2022-12-07T08:12:30;3.13;;;1.20;;
12703;SDS011;6416;52.182;7.650;2022-12-07T08:14:55;3.30;;;1.80;;
12703;SDS011;6416;52.182;7.650;2022-12-07T08:17:21;1.43;;;1.10;;
12703;SDS011;6416;52.182;7.650;2022-12-07T08:19:46;2.67;;;1.20;;
12703;SDS011;6416;52.182;7.650;2022-12-07T08:22:11;1.67;;;1.00;;
12703;SDS011;6416;52.182;7.650;2022-12-07T08:24:37;2.53;;;1.33;;
12703;SDS011;6416;52.182;7.650;2022-12-07T08:27:03;1.87;;;1.07;;
12703;SDS011;6416;52.182;7.650;2022-12-07T08:29:28;1.73;;;1.00;;
12703;SDS011;6416;52.182;7.650;2022-12-07T08:31:54;2.20;;;1.33;;
12703;SDS011;6416;52.182;7.650;2022-12-07T08:34:20;2.13;;;1.40;;
12703;SDS011;6416;52.182;7.650;2022-12-07T08:36:45;4.90;;;1.47;;
12703;SDS011;6416;52.182;7.650;2022-12-07T08:39:11;1.53;;;1.13;;
12703;SDS011;6416;52.182;7.650;2022-12-07T08:41:36;2.50;;;1.30;;
12703;SDS011;6416;52.182;7.650;2022-12-07T08:44:02;1.40;;;1.27;;
12703;SDS011;6416;52.182;7.650;2022-12-07T08:49:08;2.27;;;1.20;;
12703;SDS011;6416;52.182;7.650;2022-12-07T08:51:37;2.37;;;1.07;;
12703;SDS011;6416;52.182;7.650;2022-12-07T08:54:04;2.30;;;1.27;;
12703;SDS011;6416;52.182;7.650;2022-12-07T08:56:33;3.20;;;1.30;;
12703;SDS011;6416;52.182;7.650;2022-12-07T08:58:59;3.60;;;1.20;;
12703;SDS011;6416;52.182;7.650;2022-12-07T09:01:25;1.70;;;1.37;;
12703;SDS011;6416;52.182;7.650;2022-12-07T09:03:50;5.23;;;1.23;;
12703;SDS011;6416;52.182;7.650;2022-12-07T09:06:16;2.70;;;1.23;;
12703;SDS011;6416;52.182;7.650;2022-12-07T09:08:42;2.67;;;1.10;;
12703;SDS011;6416;52.182;7.650;2022-12-07T09:11:11;3.03;;;1.20;;
12703;SDS011;6416;52.182;7.650;2022-12-07T09:13:37;1.90;;;1.27;;
12703;SDS011;6416;52.182;7.650;2022-12-07T09:16:02;2.00;;;1.20;;
12703;SDS011;6416;52.182;7.650;2022-12-07T09:18:28;1.90;;;1.00;;
12703;SDS011;6416;52.182;7.650;2022-12-07T09:20:53;1.97;;;1.10;;
12703;SDS011;6416;52.182;7.650;2022-12-07T09:23:19;1.60;;;1.17;;
12703;SDS011;6416;52.182;7.650;2022-12-07T09:25:44;1.87;;;1.07;;
12703;SDS011;6416;52.182;7.650;2022-12-07T09:28:10;3.60;;;1.47;;
12703;SDS011;6416;52.182;7.650;2022-12-07T09:30:35;2.47;;;1.27;;
12703;SDS011;6416;52.182;7.650;2022-12-07T09:33:01;2.47;;;1.30;;
12703;SDS011;6416;52.182;7.650;2022-12-07T09:35:26;1.93;;;1.00;;
12703;SDS011;6416;52.182;7.650;2022-12-07T09:37:52;2.00;;;1.17;;
12703;SDS011;6416;52.182;7.650;2022-12-07T09:40:18;4.00;;;1.50;;
12703;SDS011;6416;52.182;7.650;2022-12-07T09:42:50;2.33;;;1.10;;
12703;SDS011;6416;52.182;7.650;2022-12-07T09:45:20;5.57;;;1.60;;
12703;SDS011;6416;52.182;7.650;2022-12-07T09:47:58;3.70;;;1.80;;
12703;SDS011;6416;52.182;7.650;2022-12-07T09:50:25;3.80;;;1.40;;
12703;SDS011;6416;52.182;7.650;2022-12-07T09:52:52;3.27;;;1.63;;
12703;SDS011;6416;52.182;7.650;2022-12-07T09:55:22;4.90;;;1.33;;
12703;SDS011;6416;52.182;7.650;2022-12-07T09:57:51;2.10;;;1.63;;
12703;SDS011;6416;52.182;7.650;2022-12-07T10:00:19;3.10;;;1.30;;
12703;SDS011;6416;52.182;7.650;2022-12-07T10:02:48;4.87;;;1.87;;
12703;SDS011;6416;52.182;7.650;2022-12-07T10:05:25;2.93;;;1.30;;
12703;SDS011;6416;52.182;7.650;2022-12-07T10:07:55;2.30;;;1.30;;
12703;SDS011;6416;52.182;7.650;2022-12-07T10:10:23;3.77;;;1.33;;
12703;SDS011;6416;52.182;7.650;2022-12-07T10:12:56;3.17;;;1.10;;
12703;SDS011;6416;52.182;7.650;2022-12-07T10:15:39;4.10;;;1.37;;
12703;SDS011;6416;52.182;7.650;2022-12-07T10:23:41;2.10;;;1.33;;
12703;SDS011;6416;52.182;7.650;2022-12-07T10:28:51;3.87;;;1.20;;
12703;SDS011;6416;52.182;7.650;2022-12-07T10:31:17;3.57;;;1.53;;
12703;SDS011;6416;52.182;7.650;2022-12-07T10:33:52;1.87;;;1.00;;
12703;SDS011;6416;52.182;7.650;2022-12-07T10:36:26;2.53;;;1.33;;
12703;SDS011;6416;52.182;7.650;2022-12-07T10:39:00;6.07;;;1.60;;
12703;SDS011;6416;52.182;7.650;2022-12-07T10:41:28;2.27;;;1.33;;
12703;SDS011;6416;52.182;7.650;2022-12-07T10:43:55;3.57;;;1.40;;
12703;SDS011;6416;52.182;7.650;2022-12-07T10:49:03;2.93;;;1.30;;
12703;SDS011;6416;52.182;7.650;2022-12-07T10:55:13;3.87;;;1.80;;
12703;SDS011;6416;52.182;7.650;2022-12-07T11:00:26;1.33;;;1.07;;
12703;SDS011;6416;52.182;7.650;2022-12-07T11:05:50;2.67;;;1.30;;
12703;SDS011;6416;52.182;7.650;2022-12-07T11:11:16;3.10;;;1.03;;
12703;SDS011;6416;52.182;7.650;2022-12-07T11:16:49;2.13;;;1.30;;
12703;SDS011;6416;52.182;7.650;2022-12-07T11:19:39;3.57;;;1.13;;
12703;SDS011;6416;52.182;7.650;2022-12-07T11:22:12;4.13;;;1.70;;
12703;SDS011;6416;52.182;7.650;2022-12-07T11:27:30;2.67;;;1.10;;
12703;SDS011;6416;52.182;7.650;2022-12-07T11:35:30;3.63;;;1.30;;
12703;SDS011;6416;52.182;7.650;2022-12-07T11:40:40;3.87;;;1.33;;
12703;SDS011;6416;52.182;7.650;2022-12-07T11:43:20;2.77;;;1.20;;
12703;SDS011;6416;52.182;7.650;2022-12-07T11:45:53;2.57;;;1.20;;
12703;SDS011;6416;52.182;7.650;2022-12-07T11:48:25;3.20;;;1.50;;
12703;SDS011;6416;52.182;7.650;2022-12-07T11:50:59;3.53;;;1.20;;
12703;SDS011;6416;52.182;7.650;2022-12-07T11:53:35;2.27;;;1.00;;
12703;SDS011;6416;52.182;7.650;2022-12-07T11:56:14;2.87;;;1.30;;
12703;SDS011;6416;52.182;7.650;2022-12-07T12:06:38;3.50;;;1.35;;
12703;SDS011;6416;52.182;7.650;2022-12-07T12:09:12;2.47;;;1.27;;
12703;SDS011;6416;52.182;7.650;2022-12-07T12:23:11;2.87;;;1.40;;
12703;SDS011;6416;52.182;7.650;2022-12-07T12:25:58;4.43;;;1.60;;
12703;SDS011;6416;52.182;7.650;2022-12-07T12:28:32;4.13;;;1.90;;
12703;SDS011;6416;52.182;7.650;2022-12-07T12:33:36;4.53;;;2.10;;
12703;SDS011;6416;52.182;7.650;2022-12-07T12:36:16;4.30;;;1.87;;
12703;SDS011;6416;52.182;7.650;2022-12-07T12:46:53;3.57;;;1.33;;
12703;SDS011;6416;52.182;7.650;2022-12-07T12:51:45;4.33;;;1.70;;
12703;SDS011;6416;52.182;7.650;2022-12-07T12:56:59;4.10;;;1.10;;
12703;SDS011;6416;52.182;7.650;2022-12-07T13:02:26;3.67;;;1.60;;
12703;SDS011;6416;52.182;7.650;2022-12-07T13:12:56;3.40;;;1.00;;
12703;SDS011;6416;52.182;7.650;2022-12-07T13:15:32;5.27;;;1.40;;
12703;SDS011;6416;52.182;7.650;2022-12-07T13:18:35;2.93;;;1.37;;
12703;SDS011;6416;52.182;7.650;2022-12-07T13:26:23;4.27;;;1.30;;
12703;SDS011;6416;52.182;7.650;2022-12-07T13:36:58;3.30;;;1.40;;
12703;SDS011;6416;52.182;7.650;2022-12-07T13:39:25;3.97;;;1.37;;
12703;SDS011;6416;52.182;7.650;2022-12-07T13:41:53;3.27;;;1.53;;
12703;SDS011;6416;52.182;7.650;2022-12-07T13:44:20;3.27;;;1.50;;
12703;SDS011;6416;52.182;7.650;2022-12-07T13:46:57;2.20;;;1.30;;
12703;SDS011;6416;52.182;7.650;2022-12-07T13:49:50;2.47;;;1.13;;
12703;SDS011;6416;52.182;7.650;2022-12-07T13:52:24;3.30;;;1.57;;
12703;SDS011;6416;52.182;7.650;2022-12-07T13:57:24;2.93;;;1.73;;
12703;SDS011;6416;52.182;7.650;2022-12-07T13:59:51;2.27;;;1.20;;
12703;SDS011;6416;52.182;7.650;2022-12-07T14:02:25;4.23;;;1.77;;
12703;SDS011;6416;52.182;7.650;2022-12-07T14:05:06;2.37;;;1.40;;
12703;SDS011;6416;52.182;7.650;2022-12-07T14:07:33;3.77;;;1.80;;
12703;SDS011;6416;52.182;7.650;2022-12-07T14:10:00;3.07;;;1.70;;
12703;SDS011;6416;52.182;7.650;2022-12-07T14:12:29;2.93;;;1.30;;
12703;SDS011;6416;52.182;7.650;2022-12-07T14:14:55;3.30;;;1.90;;
12703;SDS011;6416;52.182;7.650;2022-12-07T14:17:23;2.07;;;1.40;;
12703;SDS011;6416;52.182;7.650;2022-12-07T14:20:00;4.33;;;2.10;;
12703;SDS011;6416;52.182;7.650;2022-12-07T14:22:29;9.10;;;3.90;;
12703;SDS011;6416;52.182;7.650;2022-12-07T14:25:00;6.43;;;3.00;;
12703;SDS011;6416;52.182;7.650;2022-12-07T14:27:32;3.67;;;2.30;;
12703;SDS011;6416;52.182;7.650;2022-12-07T14:29:58;9.27;;;2.57;;
12703;SDS011;6416;52.182;7.650;2022-12-07T14:32:25;5.87;;;2.47;;
12703;SDS011;6416;52.182;7.650;2022-12-07T14:34:53;3.67;;;1.73;;
12703;SDS011;6416;52.182;7.650;2022-12-07T14:37:39;2.73;;;1.60;;
12703;SDS011;6416;52.182;7.650;2022-12-07T14:40:07;4.33;;;1.40;;
12703;SDS011;6416;52.182;7.650;2022-12-07T14:42:36;4.10;;;1.73;;
12703;SDS011;6416;52.182;7.650;2022-12-07T14:45:02;4.60;;;1.43;;
12703;SDS011;6416;52.182;7.650;2022-12-07T14:47:28;3.90;;;1.30;;
12703;SDS011;6416;52.182;7.650;2022-12-07T14:49:53;4.87;;;1.47;;
12703;SDS011;6416;52.182;7.650;2022-12-07T14:52:27;3.87;;;1.60;;
12703;SDS011;6416;52.182;7.650;2022-12-07T14:54:53;3.40;;;1.73;;
12703;SDS011;6416;52.182;7.650;2022-12-07T14:57:19;6.07;;;2.13;;
12703;SDS011;6416;52.182;7.650;2022-12-07T14:59:44;6.83;;;2.63;;
12703;SDS011;6416;52.182;7.650;2022-12-07T15:02:11;4.17;;;1.87;;
12703;SDS011;6416;52.182;7.650;2022-12-07T15:04:37;3.73;;;1.70;;
12703;SDS011;6416;52.182;7.650;2022-12-07T15:07:03;3.70;;;1.93;;
12703;SDS011;6416;52.182;7.650;2022-12-07T15:09:30;3.73;;;1.70;;
12703;SDS011;6416;52.182;7.650;2022-12-07T15:11:55;3.97;;;1.90;;
12703;SDS011;6416;52.182;7.650;2022-12-07T15:14:21;4.47;;;2.37;;
12703;SDS011;6416;52.182;7.650;2022-12-07T15:16:46;4.50;;;2.27;;
12703;SDS011;6416;52.182;7.650;2022-12-07T15:19:21;3.60;;;2.33;;
12703;SDS011;6416;52.182;7.650;2022-12-07T15:21:48;5.30;;;2.90;;
12703;SDS011;6416;52.182;7.650;2022-12-07T15:24:14;5.27;;;2.40;;
12703;SDS011;6416;52.182;7.650;2022-12-07T15:26:42;2.83;;;1.70;;
12703;SDS011;6416;52.182;7.650;2022-12-07T15:29:08;4.77;;;2.10;;
12703;SDS011;6416;52.182;7.650;2022-12-07T15:31:34;3.77;;;2.17;;
12703;SDS011;6416;52.182;7.650;2022-12-07T15:34:00;2.67;;;2.13;;
12703;SDS011;6416;52.182;7.650;2022-12-07T15:36:27;4.20;;;2.33;;
12703;SDS011;6416;52.182;7.650;2022-12-07T15:38:54;5.07;;;2.47;;
12703;SDS011;6416;52.182;7.650;2022-12-07T15:41:20;4.33;;;1.73;;
12703;SDS011;6416;52.182;7.650;2022-12-07T15:43:46;4.13;;;1.80;;
12703;SDS011;6416;52.182;7.650;2022-12-07T15:46:11;5.03;;;2.43;;
12703;SDS011;6416;52.182;7.650;2022-12-07T15:48:37;3.33;;;1.97;;
12703;SDS011;6416;52.182;7.650;2022-12-07T15:51:03;4.80;;;2.60;;
12703;SDS011;6416;52.182;7.650;2022-12-07T15:53:33;3.03;;;2.00;;
12703;SDS011;6416;52.182;7.650;2022-12-07T15:55:59;3.13;;;2.00;;
12703;SDS011;6416;52.182;7.650;2022-12-07T15:58:24;3.60;;;2.30;;
12703;SDS011;6416;52.182;7.650;2022-12-07T16:00:50;2.57;;;1.93;;
12703;SDS011;6416;52.182;7.650;2022-12-07T16:03:15;6.07;;;2.30;;
12703;SDS011;6416;52.182;7.650;2022-12-07T16:05:41;5.30;;;2.37;;
12703;SDS011;6416;52.182;7.650;2022-12-07T16:08:06;4.87;;;2.10;;
12703;SDS011;6416;52.182;7.650;2022-12-07T16:10:32;4.77;;;2.00;;
12703;SDS011;6416;52.182;7.650;2022-12-07T16:12:58;3.67;;;1.90;;
12703;SDS011;6416;52.182;7.650;2022-12-07T16:15:24;3.70;;;2.00;;
12703;SDS011;6416;52.182;7.650;2022-12-07T16:17:50;3.83;;;2.23;;
12703;SDS011;6416;52.182;7.650;2022-12-07T16:20:16;5.50;;;2.30;;
12703;SDS011;6416;52.182;7.650;2022-12-07T16:22:41;4.37;;;2.63;;
12703;SDS011;6416;52.182;7.650;2022-12-07T16:25:07;2.60;;;2.17;;
12703;SDS011;6416;52.182;7.650;2022-12-07T16:27:33;2.73;;;1.90;;
12703;SDS011;6416;52.182;7.650;2022-12-07T16:29:59;3.40;;;2.30;;
12703;SDS011;6416;52.182;7.650;2022-12-07T16:32:25;3.60;;;2.07;;
12703;SDS011;6416;52.182;7.650;2022-12-07T16:34:50;4.37;;;2.17;;
12703;SDS011;6416;52.182;7.650;2022-12-07T16:37:15;4.47;;;2.27;;
12703;SDS011;6416;52.182;7.650;2022-12-07T16:39:41;5.30;;;2.53;;
12703;SDS011;6416;52.182;7.650;2022-12-07T16:42:06;5.00;;;2.43;;
12703;SDS011;6416;52.182;7.650;2022-12-07T16:44:32;5.20;;;2.73;;
12703;SDS011;6416;52.182;7.650;2022-12-07T16:46:57;2.30;;;2.10;;
12703;SDS011;6416;52.182;7.650;2022-12-07T16:49:23;3.83;;;2.53;;
12703;SDS011;6416;52.182;7.650;2022-12-07T16:51:49;4.07;;;2.70;;
12703;SDS011;6416;52.182;7.650;2022-12-07T16:54:15;3.87;;;2.87;;
12703;SDS011;6416;52.182;7.650;2022-12-07T16:56:40;3.37;;;2.83;;
12703;SDS011;6416;52.182;7.650;2022-12-07T16:59:06;5.23;;;2.80;;
12703;SDS011;6416;52.182;7.650;2022-12-07T17:01:32;4.03;;;2.50;;
12703;SDS011;6416;52.182;7.650;2022-12-07T17:03:58;6.57;;;2.73;;
12703;SDS011;6416;52.182;7.650;2022-12-07T17:06:24;4.07;;;2.80;;
12703;SDS011;6416;52.182;7.650;2022-12-07T17:08:52;7.47;;;3.30;;
12703;SDS011;6416;52.182;7.650;2022-12-07T17:11:19;3.80;;;2.47;;
12703;SDS011;6416;52.182;7.650;2022-12-07T17:13:50;5.57;;;2.83;;